• Join FlightAware (Why Join?)
  • Login
  • US Flag 
05:30AM EDT


 

Airport Tracker/Info


-or-


 

Live Flight TrackerFlight Track Log ✈ N128CL ✈ 04-May-2012 ✈ KJZI - KRUQ

Flight Track Log - Related Links

Times and Time Zones

All times are in EDT time to prevent confusion due to time zone crossing. See the N128CL flight status page for this flight to view local times or setup timezone preferences in your user account.

Time Position Orientation Groundspeed Altitude Reporting Facility
EDT Latitude Longitude Course Direction KTS MPH feet Rate Location/Type
04:16PM 32.7109 -80.0049 352° North  Level FlightAware Approximate
04:17PM 32.7506 -80.0115 352° North  Level FlightAware Approximate
04:18PM 32.7903 -80.0181 352° North  Level FlightAware Approximate
04:19PM 32.8299 -80.0246 352° North  Level FlightAware Approximate
04:20PM 32.8684 -80.0219 352° North  Level FlightAware Approximate
04:21PM 32.9080 -80.0286 352° North  Level FlightAware Approximate
04:22PM 32.9477 -80.0354 352° North  Level FlightAware Approximate
04:23PM 32.9841 -80.0500 352° North  Level FlightAware Approximate
04:24PM 33.0239 -80.0541 352° North  Level FlightAware Approximate
04:25PM 33.0636 -80.0608 352° North  Level FlightAware Approximate
04:26PM 33.1061 -80.0679 352° North  Level FlightAware Approximate
04:27PM 33.1487 -80.0751 352° North  Level FlightAware Approximate
04:28PM 33.1913 -80.0823 352° North  Level FlightAware Approximate
04:29PM 33.2339 -80.0895 352° North  Level FlightAware Approximate
04:30PM 33.2765 -80.0966 352° North  Level FlightAware Approximate
04:31PM 33.3190 -80.1038 352° North  Level FlightAware Approximate
04:32PM 33.3616 -80.1110 352° North  Level FlightAware Approximate
04:33PM 33.4039 -80.1201 352° North  Level FlightAware Approximate
04:34PM 33.4465 -80.1273 352° North  Level FlightAware Approximate
04:35PM 33.4890 -80.1344 352° North  Level FlightAware Approximate
04:36PM 33.5316 -80.1416 352° North  Level FlightAware Approximate
04:37PM 33.5742 -80.1488 352° North  Level FlightAware Approximate
04:38PM 33.6168 -80.1560 352° North  Level FlightAware Approximate
04:39PM 33.6593 -80.1632 352° North  Level FlightAware Approximate
04:40PM 33.7019 -80.1705 352° North  Level FlightAware Approximate
04:41PM 33.7445 -80.1777 352° North  Level FlightAware Approximate
04:42PM 33.7870 -80.1849 352° North  Level FlightAware Approximate
04:43PM 33.8296 -80.1922 352° North  Level FlightAware Approximate
04:44PM 33.8722 -80.1994 352° North  Level FlightAware Approximate
04:45PM 33.9147 -80.2067 352° North  Level FlightAware Approximate
04:46PM 33.9573 -80.2139 352° North  Level FlightAware Approximate
04:47PM 33.9999 -80.2212 352° North  Level FlightAware Approximate
04:48PM 34.0425 -80.2285 352° North  Level FlightAware Approximate
04:49PM 34.0850 -80.2358 352° North  Level FlightAware Approximate
04:50PM 34.1276 -80.2431 352° North  Level FlightAware Approximate
04:51PM 34.1702 -80.2504 352° North  Level FlightAware Approximate
04:52PM 34.2133 -80.2578 352° North  Level FlightAware Approximate
04:53PM 34.2565 -80.2652 352° North  Level FlightAware Approximate
04:54PM 34.2996 -80.2726 352° North  Level FlightAware Approximate
04:55PM 34.3428 -80.2800 352° North  Level FlightAware Approximate
04:56PM 34.3859 -80.2875 352° North  Level FlightAware Approximate
04:57PM 34.4291 -80.2949 352° North  Level FlightAware Approximate
04:58PM 34.5686 -80.3181 349° North 172 198 6,100  Level Atlanta Center
04:59PM 34.6147 -80.3286 353° North 163 188 6,000 -60 Descending Atlanta Center
05:00PM 34.6544 -80.3344 351° North 161 185 6,000  Level Atlanta Center
05:01PM 34.7069 -80.3447 350° North 160 184 6,000  Level Atlanta Center
05:02PM 34.7450 -80.3531 355° North 161 185 6,000  Level Atlanta Center
05:03PM 34.7931 -80.3586 348° North 161 185 6,000 -60 Level Atlanta Center
05:04PM 34.8350 -80.3694 350° North 163 188 5,900 -300 Descending Atlanta Center
05:05PM 34.8833 -80.3800 353° North 172 198 5,400 -480 Descending Atlanta Center
05:07PM 34.9378 -80.3878 352° North 178 205 4,900 -480 Descending Atlanta Center
05:08PM 34.9944 -80.3978 348° North 175 201 4,400 -480 Descending Atlanta Center
05:09PM 35.0367 -80.4089 352° North 174 200 4,000 -240 Descending Atlanta Center
05:10PM 35.0828 -80.4169 354° North 163 188 4,000  Level Atlanta Center
05:11PM 35.1289 -80.4225 351° North 162 186 4,000  Level Atlanta Center
05:12PM 35.1728 -80.4308 354° North 158 182 4,000  Level Atlanta Center
05:13PM 35.2147 -80.4364 350° North 159 183 4,000  Level Atlanta Center
05:14PM 35.2547 -80.4450 345° North 151 174 4,000  Level Atlanta Center
05:15PM 35.2967 -80.4583 354° North 156 180 4,000  Level Atlanta Center
05:16PM 35.3408 -80.4642 352° North 159 183 4,000  Level Atlanta Center
05:17PM 35.3869 -80.4722 349° North 162 186 4,000  Level Atlanta Center
05:18PM 35.4331 -80.4831 349° North 162 186 4,000  Level Atlanta Center